createdAt,value
2022-10-18T00:00:37.595Z,100557.34
2022-10-18T00:01:39.399Z,100536.56
2022-10-18T00:02:41.211Z,100538.88
2022-10-18T00:04:49.827Z,100552.75
2022-10-18T00:05:51.923Z,100549.44
2022-10-18T00:06:53.581Z,100552.41
2022-10-18T00:07:55.279Z,100553.25
2022-10-18T00:08:56.936Z,100548.13
2022-10-18T00:09:58.577Z,100537.56
2022-10-18T00:11:00.309Z,100532.28
2022-10-18T00:12:02.032Z,100491.03
2022-10-18T00:13:04.151Z,100533.91
2022-10-18T00:14:06.004Z,100513.81
2022-10-18T00:15:08.438Z,100536.56
2022-10-18T00:16:14.322Z,100534.09
2022-10-18T00:17:16.173Z,100541.84
2022-10-18T00:18:18.101Z,100535.09
2022-10-18T00:19:19.811Z,100531.78
2022-10-18T00:20:21.466Z,100539.88
2022-10-18T00:21:25.153Z,100524.69
2022-10-18T00:22:26.788Z,100536.22
2022-10-18T00:23:29.723Z,100505.91
2022-10-18T00:24:31.376Z,100531.28
2022-10-18T00:25:33.008Z,100537.56
2022-10-18T00:26:34.746Z,100529.63
2022-10-18T00:27:37.040Z,100501.94
2022-10-18T00:28:39.721Z,100498.63
2022-10-18T00:29:41.439Z,100474.50
2022-10-18T00:30:43.185Z,100526.53
2022-10-18T00:31:44.953Z,100492.50
2022-10-18T00:32:46.598Z,100483.47
2022-10-18T00:33:52.713Z,100523.88
2022-10-18T00:34:54.396Z,100479.84
2022-10-18T00:35:56.058Z,100521.41
2022-10-18T00:36:57.707Z,100525.19
2022-10-18T00:37:59.434Z,100521.22
2022-10-18T00:39:02.813Z,100505.22
2022-10-18T00:40:05.466Z,100522.06
2022-10-18T00:41:09.265Z,100516.94
2022-10-18T00:42:22.686Z,100505.22
2022-10-18T00:43:24.315Z,100506.88
2022-10-18T00:44:25.919Z,100521.25
2022-10-18T00:45:27.965Z,100519.59
2022-10-18T00:46:32.523Z,100502.25
2022-10-18T00:47:35.868Z,100512.00
2022-10-18T00:48:37.552Z,100515.31
2022-10-18T00:49:51.732Z,100488.88
2022-10-18T00:50:53.678Z,100496.97
2022-10-18T00:52:01.029Z,100512.34
2022-10-18T00:53:05.070Z,100513.13
2022-10-18T00:54:06.821Z,100515.97
2022-10-18T00:55:09.417Z,100508.06
2022-10-18T00:56:12.444Z,100495.63
2022-10-18T00:57:15.068Z,100486.22
2022-10-18T00:58:19.977Z,100491.34
2022-10-18T00:59:22.314Z,100520.25
2022-10-18T01:00:24.281Z,100491.03
2022-10-18T01:01:28.461Z,100510.84
2022-10-18T01:02:32.924Z,100509.19
2022-10-18T01:03:36.400Z,100492.34
2022-10-18T01:04:38.138Z,100512.16
2022-10-18T01:05:44.848Z,100476.50
2022-10-18T01:07:10.969Z,100511.47
2022-10-18T01:08:57.521Z,100511.47
2022-10-18T01:10:20.402Z,100515.78
2022-10-18T01:11:37.006Z,100511.63
2022-10-18T01:13:09.731Z,100506.19
2022-10-18T01:14:35.898Z,100513.75
2022-10-18T01:17:09.201Z,100480.94
2022-10-18T01:18:25.223Z,100506.53
2022-10-18T01:19:38.976Z,100500.56
2022-10-18T01:20:55.639Z,100502.22
2022-10-18T01:22:08.377Z,100467.56
2022-10-18T01:23:19.473Z,100498.75
2022-10-18T01:24:39.787Z,100501.56
2022-10-18T01:26:02.264Z,100499.75
2022-10-18T01:27:46.188Z,100506.16
2022-10-18T01:29:18.839Z,100507.97
2022-10-18T01:30:32.423Z,100504.84
2022-10-18T01:31:45.446Z,100481.25
2022-10-18T01:33:05.572Z,100491.47
2022-10-18T01:34:09.695Z,100506.81
2022-10-18T01:35:18.893Z,100502.50
2022-10-18T01:36:26.065Z,100500.03
2022-10-18T01:37:30.019Z,100501.22
2022-10-18T01:38:33.344Z,100461.75
2022-10-18T01:39:42.656Z,100502.50
2022-10-18T01:40:47.572Z,100494.75
2022-10-18T01:41:51.576Z,100498.38
2022-10-18T01:42:53.280Z,100487.31
2022-10-18T01:43:59.910Z,100494.75
2022-10-18T01:45:03.939Z,100495.91
2022-10-18T01:46:06.292Z,100497.88
2022-10-18T01:47:11.355Z,100481.22
2022-10-18T01:48:14.202Z,100497.72
2022-10-18T01:49:15.930Z,100477.75
2022-10-18T01:50:29.752Z,100463.56
2022-10-18T01:51:32.932Z,100496.06
2022-10-18T01:52:34.870Z,100467.88
2022-10-18T01:53:36.627Z,100493.94
2022-10-18T01:54:41.602Z,100501.00
2022-10-18T01:55:51.174Z,100468.50
2022-10-18T01:57:45.388Z,100496.06
2022-10-18T01:59:11.890Z,100490.31
2022-10-18T02:00:19.166Z,100492.94
2022-10-18T02:01:45.171Z,100495.72
2022-10-18T02:03:21.425Z,100477.69
2022-10-18T02:04:38.444Z,100485.59
2022-10-18T02:05:56.420Z,100487.25
2022-10-18T02:07:06.035Z,100485.28
2022-10-18T02:08:30.067Z,100487.41
2022-10-18T02:09:47.266Z,100480.84
2022-10-18T02:10:53.518Z,100483.31
2022-10-18T02:11:57.232Z,100479.69
2022-10-18T02:13:00.146Z,100476.06
2022-10-18T02:14:08.574Z,100469.78
2022-10-18T02:15:14.487Z,100469.63
2022-10-18T02:16:49.485Z,100480.00
2022-10-18T02:17:54.430Z,100476.38
2022-10-18T02:19:01.970Z,100473.75
2022-10-18T02:20:07.016Z,100449.97
2022-10-18T02:21:13.460Z,100451.47
2022-10-18T02:22:17.161Z,100476.84
2022-10-18T02:23:23.760Z,100479.44
2022-10-18T02:24:34.684Z,100437.97
2022-10-18T02:25:37.195Z,100474.84
2022-10-18T02:26:39.339Z,100472.13
2022-10-18T02:27:41.422Z,100475.25
2022-10-18T02:28:45.062Z,100443.16
2022-10-18T02:29:47.164Z,100470.06
2022-10-18T02:30:58.972Z,100480.31
2022-10-18T02:32:17.640Z,100474.97
2022-10-18T02:33:32.595Z,100471.69
2022-10-18T02:34:46.681Z,100471.03
2022-10-18T02:35:54.498Z,100456.00
2022-10-18T02:36:59.534Z,100452.56
2022-10-18T02:38:04.447Z,100474.53
2022-10-18T02:39:14.714Z,100456.72
2022-10-18T02:40:17.381Z,100447.59
2022-10-18T02:41:27.207Z,100471.91
2022-10-18T02:42:40.490Z,100438.19
2022-10-18T02:43:42.148Z,100456.03
2022-10-18T02:44:43.843Z,100476.84
2022-10-18T02:45:45.529Z,100485.56
2022-10-18T02:46:47.974Z,100467.94
2022-10-18T02:47:49.651Z,100462.66
2022-10-18T02:48:51.426Z,100474.72
2022-10-18T02:49:53.130Z,100470.94
2022-10-18T02:50:54.787Z,100476.53
2022-10-18T02:51:56.437Z,100483.81
2022-10-18T02:52:58.084Z,100483.81
2022-10-18T02:53:59.797Z,100485.47
2022-10-18T02:55:01.961Z,100465.03
2022-10-18T02:56:03.706Z,100480.81
2022-10-18T02:57:05.389Z,100483.47
2022-10-18T02:58:07.088Z,100464.84
2022-10-18T02:59:08.772Z,100477.22
2022-10-18T03:00:10.974Z,100469.75
2022-10-18T03:01:12.694Z,100460.03
2022-10-18T03:02:14.435Z,100486.09
2022-10-18T03:03:16.074Z,100491.56
2022-10-18T03:04:17.811Z,100471.75
2022-10-18T03:05:19.623Z,100454.88
2022-10-18T03:06:21.289Z,100479.97
2022-10-18T03:07:23.051Z,100508.00
2022-10-18T03:08:24.769Z,100474.63
2022-10-18T03:09:26.507Z,100507.16
2022-10-18T03:10:28.176Z,100504.53
2022-10-18T03:11:29.840Z,100496.63
2022-10-18T03:12:31.493Z,100500.25
2022-10-18T03:13:34.423Z,100500.09
2022-10-18T03:14:36.274Z,100479.59
2022-10-18T03:15:38.125Z,100465.56
2022-10-18T03:16:39.889Z,100497.91
2022-10-18T03:17:41.542Z,100498.59
2022-10-18T03:18:43.269Z,100502.19
2022-10-18T03:19:44.974Z,100504.19
2022-10-18T03:20:46.665Z,100478.06
2022-10-18T03:21:48.406Z,100501.03
2022-10-18T03:22:50.182Z,100468.16
2022-10-18T03:23:51.833Z,100501.19
2022-10-18T03:24:54.088Z,100504.81
2022-10-18T03:25:55.724Z,100481.16
2022-10-18T03:26:57.477Z,100501.50
2022-10-18T03:27:59.116Z,100507.91
2022-10-18T03:29:00.915Z,100483.78
2022-10-18T03:30:02.636Z,100501.31
2022-10-18T03:31:05.104Z,100504.09
2022-10-18T03:32:07.119Z,100505.91
2022-10-18T03:33:08.765Z,100503.41
2022-10-18T03:34:10.470Z,100506.19
2022-10-18T03:35:12.231Z,100467.38
2022-10-18T03:36:14.020Z,100466.41
2022-10-18T03:37:16.437Z,100469.38
2022-10-18T03:38:18.087Z,100463.09
2022-10-18T03:39:19.758Z,100489.84
2022-10-18T03:40:21.472Z,100491.19
2022-10-18T03:41:23.160Z,100499.59
2022-10-18T03:42:24.856Z,100465.06
2022-10-18T03:43:26.501Z,100499.13
2022-10-18T03:44:28.169Z,100507.19
2022-10-18T03:45:31.365Z,100499.91
2022-10-18T03:46:33.379Z,100505.63
2022-10-18T03:47:35.077Z,100483.47
2022-10-18T03:48:36.741Z,100498.72
2022-10-18T03:49:38.502Z,100497.06
2022-10-18T03:50:40.299Z,100501.19
2022-10-18T03:51:42.073Z,100498.56
2022-10-18T03:52:43.973Z,100505.47
2022-10-18T03:53:45.627Z,100503.97
2022-10-18T03:54:47.278Z,100485.81
2022-10-18T03:55:53.334Z,100475.66
2022-10-18T03:56:55.008Z,100503.56
2022-10-18T03:57:56.817Z,100490.91
2022-10-18T03:58:58.515Z,100484.97
2022-10-18T04:00:00.183Z,100506.81
2022-10-18T04:01:01.872Z,100506.41
2022-10-18T04:02:03.638Z,100510.00
2022-10-18T04:03:05.380Z,100485.75
2022-10-18T04:04:07.050Z,100497.53
2022-10-18T04:05:09.100Z,100497.28
2022-10-18T04:06:10.859Z,100471.63
2022-10-18T04:07:12.515Z,100496.78
2022-10-18T04:08:15.354Z,100489.22
2022-10-18T04:09:17.056Z,100494.63
2022-10-18T04:10:18.857Z,100484.09
2022-10-18T04:11:20.547Z,100503.25
2022-10-18T04:12:22.289Z,100485.91
2022-10-18T04:13:23.924Z,100495.81
2022-10-18T04:14:25.758Z,100507.84
2022-10-18T04:15:27.390Z,100470.78
2022-10-18T04:16:29.122Z,100499.41
2022-10-18T04:17:31.031Z,100494.84
2022-10-18T04:18:32.843Z,100480.38
2022-10-18T04:19:34.515Z,100468.34
2022-10-18T04:20:36.183Z,100472.44
2022-10-18T04:21:37.926Z,100494.50
2022-10-18T04:22:39.651Z,100497.75
2022-10-18T04:23:41.362Z,100497.94
2022-10-18T04:24:43.046Z,100483.44
2022-10-18T04:25:44.671Z,100497.63
2022-10-18T04:26:46.350Z,100465.38
2022-10-18T04:27:48.181Z,100491.38
2022-10-18T04:28:49.960Z,100485.28
2022-10-18T04:29:51.657Z,100496.34
2022-10-18T04:30:53.617Z,100489.56
2022-10-18T04:31:55.274Z,100462.28
2022-10-18T04:32:56.968Z,100490.25
2022-10-18T04:33:58.615Z,100454.84
2022-10-18T04:35:00.253Z,100454.84
2022-10-18T04:36:02.226Z,100494.97
2022-10-18T04:37:03.889Z,100466.06
2022-10-18T04:38:05.587Z,100492.19
2022-10-18T04:39:07.322Z,100497.47
2022-10-18T04:40:09.655Z,100482.72
2022-10-18T04:41:11.303Z,100496.78
2022-10-18T04:42:13.420Z,100492.97
2022-10-18T04:43:15.352Z,100481.00
2022-10-18T04:44:16.991Z,100486.97
2022-10-18T04:45:18.624Z,100501.84
2022-10-18T04:46:20.371Z,100477.56
2022-10-18T04:47:22.071Z,100497.28
2022-10-18T04:48:23.736Z,100490.63
2022-10-18T04:49:25.449Z,100479.72
2022-10-18T04:50:27.503Z,100479.88
2022-10-18T04:51:29.670Z,100484.63
2022-10-18T04:52:31.745Z,100502.78
2022-10-18T04:53:33.410Z,100496.44
2022-10-18T04:54:35.243Z,100500.25
2022-10-18T04:55:36.898Z,100492.69
2022-10-18T04:56:38.633Z,100453.34
2022-10-18T04:57:40.313Z,100497.53
2022-10-18T04:58:41.947Z,100497.34
2022-10-18T04:59:43.615Z,100496.22
2022-10-18T05:00:45.312Z,100500.38
2022-10-18T05:01:47.287Z,100490.66
2022-10-18T05:02:49.081Z,100492.16
2022-10-18T05:03:54.578Z,100493.00
2022-10-18T05:04:56.214Z,100493.34
2022-10-18T05:06:01.640Z,100465.28
2022-10-18T05:07:06.681Z,100484.94
2022-10-18T05:08:08.452Z,100498.00
2022-10-18T05:09:10.134Z,100497.84
2022-10-18T05:10:11.854Z,100470.94
2022-10-18T05:11:13.553Z,100494.56
2022-10-18T05:12:15.293Z,100496.06
2022-10-18T05:13:17.063Z,100480.09
2022-10-18T05:14:18.880Z,100472.78
2022-10-18T05:15:20.560Z,100498.72
2022-10-18T05:16:22.290Z,100505.81
2022-10-18T05:17:23.948Z,100501.06
2022-10-18T05:18:25.675Z,100498.59
2022-10-18T05:19:27.407Z,100504.38
2022-10-18T05:20:29.082Z,100490.00
2022-10-18T05:21:30.841Z,100508.69
2022-10-18T05:22:33.244Z,100505.91
2022-10-18T05:23:35.125Z,100489.44
2022-10-18T05:24:36.774Z,100503.97
2022-10-18T05:25:39.783Z,100503.50
2022-10-18T05:26:41.431Z,100502.53
2022-10-18T05:27:43.076Z,100507.97
2022-10-18T05:28:44.831Z,100504.19
2022-10-18T05:29:46.531Z,100500.06
2022-10-18T05:30:48.210Z,100483.63
2022-10-18T05:31:50.385Z,100507.38
2022-10-18T05:32:52.038Z,100497.47
2022-10-18T05:33:53.689Z,100505.59
2022-10-18T05:34:55.348Z,100472.41
2022-10-18T05:35:57.082Z,100495.22
2022-10-18T05:36:59.462Z,100510.72
2022-10-18T05:38:06.043Z,100507.78
2022-10-18T05:39:07.808Z,100497.53
2022-10-18T05:40:10.041Z,100488.50
2022-10-18T05:41:12.846Z,100509.28
2022-10-18T05:42:14.544Z,100494.94
2022-10-18T05:43:17.882Z,100477.78
2022-10-18T05:44:19.719Z,100488.03
2022-10-18T05:45:21.366Z,100470.84
2022-10-18T05:46:23.044Z,100496.91
2022-10-18T05:47:24.810Z,100468.56
2022-10-18T05:48:26.834Z,100494.31
2022-10-18T05:49:28.484Z,100499.28
2022-10-18T05:50:30.135Z,100490.34
2022-10-18T05:51:31.900Z,100500.25
2022-10-18T05:52:33.858Z,100475.53
2022-10-18T05:53:37.105Z,100494.31
2022-10-18T05:54:39.615Z,100481.44
2022-10-18T05:55:41.253Z,100485.38
2022-10-18T05:56:42.971Z,100487.72
2022-10-18T05:57:49.955Z,100487.25
2022-10-18T05:58:52.340Z,100464.28
2022-10-18T05:59:54.013Z,100465.63
2022-10-18T06:00:59.962Z,100475.69
2022-10-18T06:02:01.645Z,100495.31
2022-10-18T06:03:03.351Z,100472.22
2022-10-18T06:04:05.626Z,100500.75
2022-10-18T06:05:07.594Z,100506.34
2022-10-18T06:06:11.740Z,100497.78
2022-10-18T06:07:13.527Z,100510.16
2022-10-18T06:08:15.208Z,100503.69
2022-10-18T06:09:16.854Z,100508.97
2022-10-18T06:10:18.615Z,100504.81
2022-10-18T06:11:20.767Z,100507.78
2022-10-18T06:12:22.418Z,100509.28
2022-10-18T06:13:24.300Z,100472.50
2022-10-18T06:14:26.023Z,100508.59
2022-10-18T06:15:27.766Z,100467.03
2022-10-18T06:16:32.464Z,100510.06
2022-10-18T06:17:34.753Z,100498.19
2022-10-18T06:18:37.178Z,100494.22
2022-10-18T06:19:38.817Z,100480.34
2022-10-18T06:20:40.521Z,100511.03
2022-10-18T06:21:43.929Z,100481.34
2022-10-18T06:22:45.564Z,100508.38
2022-10-18T06:23:50.840Z,100475.22
2022-10-18T06:24:57.128Z,100485.41
2022-10-18T06:26:10.861Z,100511.47
2022-10-18T06:27:12.619Z,100503.03
2022-10-18T06:28:14.287Z,100497.59
2022-10-18T06:29:16.061Z,100492.47
2022-10-18T06:30:17.763Z,100513.25
2022-10-18T06:31:20.726Z,100516.22
2022-10-18T06:32:22.406Z,100496.09
2022-10-18T06:33:24.181Z,100517.47
2022-10-18T06:34:25.891Z,100523.25
2022-10-18T06:35:27.586Z,100517.78
2022-10-18T06:36:29.302Z,100522.88
2022-10-18T06:37:31.336Z,100500.94
2022-10-18T06:38:33.798Z,100488.84
2022-10-18T06:39:35.446Z,100504.94
2022-10-18T06:40:38.311Z,100510.91
2022-10-18T06:41:39.969Z,100516.78
2022-10-18T06:42:43.572Z,100519.25
2022-10-18T06:43:50.661Z,100514.31
2022-10-18T06:44:52.311Z,100524.91
2022-10-18T06:45:54.509Z,100523.81
2022-10-18T06:46:56.216Z,100528.28
2022-10-18T06:47:58.681Z,100503.22
2022-10-18T06:49:00.322Z,100519.78
2022-10-18T06:50:02.157Z,100515.88
2022-10-18T06:51:06.698Z,100518.72
2022-10-18T06:52:08.413Z,100518.66
2022-10-18T06:53:10.140Z,100525.69
2022-10-18T06:54:18.044Z,100516.00
2022-10-18T06:55:19.970Z,100527.53
2022-10-18T06:56:21.767Z,100483.53
2022-10-18T06:57:23.416Z,100517.13
2022-10-18T06:58:25.196Z,100517.31
2022-10-18T06:59:29.002Z,100480.78
2022-10-18T07:00:32.919Z,100507.75
2022-10-18T07:01:34.726Z,100496.13
2022-10-18T07:02:37.610Z,100491.41
2022-10-18T07:03:40.103Z,100513.88
2022-10-18T07:04:41.787Z,100511.78
2022-10-18T07:05:43.542Z,100502.56
2022-10-18T07:06:45.676Z,100483.66
2022-10-18T07:07:47.335Z,100502.41
2022-10-18T07:08:50.815Z,100500.31
2022-10-18T07:09:52.506Z,100512.22
2022-10-18T07:10:54.363Z,100504.75
2022-10-18T07:11:56.018Z,100499.22
2022-10-18T07:13:19.677Z,100492.81
2022-10-18T07:14:19.367Z,100505.22
2022-10-18T07:15:24.176Z,100474.25
2022-10-18T07:16:25.931Z,100486.13
2022-10-18T07:17:28.031Z,100498.75
2022-10-18T07:18:29.778Z,100459.63
2022-10-18T07:19:31.505Z,100495.00
2022-10-18T07:20:33.847Z,100492.78
2022-10-18T07:21:35.542Z,100487.53
2022-10-18T07:22:38.309Z,100486.44
2022-10-18T07:23:42.513Z,100489.84
2022-10-18T07:24:44.288Z,100477.78
2022-10-18T07:25:46.096Z,100474.88
2022-10-18T07:26:47.772Z,100493.84
2022-10-18T07:27:49.443Z,100475.22
2022-10-18T07:28:55.937Z,100486.66
2022-10-18T07:29:58.107Z,100489.94
2022-10-18T07:31:06.249Z,100482.38
2022-10-18T07:32:08.017Z,100472.09
2022-10-18T07:33:09.685Z,100483.47
2022-10-18T07:34:13.576Z,100482.94
2022-10-18T07:35:15.285Z,100470.75
2022-10-18T07:36:17.577Z,100452.84
2022-10-18T07:37:19.264Z,100465.28
2022-10-18T07:38:20.968Z,100477.16
2022-10-18T07:39:22.733Z,100468.00
2022-10-18T07:40:24.398Z,100475.50
2022-10-18T07:41:26.408Z,100470.03
2022-10-18T07:42:28.132Z,100474.56
2022-10-18T07:43:30.798Z,100466.91
2022-10-18T07:44:32.485Z,100462.50
2022-10-18T07:45:34.183Z,100443.72
2022-10-18T07:46:35.962Z,100434.38
2022-10-18T07:47:37.938Z,100463.69
2022-10-18T07:48:39.857Z,100467.09
2022-10-18T07:49:41.567Z,100407.00
2022-10-18T07:50:43.210Z,100454.22
2022-10-18T07:51:44.861Z,100459.69
2022-10-18T07:52:46.513Z,100442.28
2022-10-18T07:53:48.512Z,100459.25
2022-10-18T07:56:03.393Z,100449.28
2022-10-18T07:57:07.522Z,100460.75
2022-10-18T07:58:09.179Z,100457.69
2022-10-18T07:59:11.474Z,100450.09
2022-10-18T08:00:13.441Z,100446.34
2022-10-18T08:01:15.881Z,100449.53
2022-10-18T08:02:17.686Z,100450.47
2022-10-18T08:03:19.690Z,100445.25
2022-10-18T08:04:21.485Z,100442.13
2022-10-18T08:05:23.284Z,100439.63
2022-10-18T08:06:25.020Z,100412.78
2022-10-18T08:07:26.800Z,100414.16
2022-10-18T08:08:29.711Z,100435.56
2022-10-18T08:09:31.347Z,100402.25
2022-10-18T08:10:35.179Z,100428.19
2022-10-18T08:11:36.828Z,100412.41
2022-10-18T08:12:38.497Z,100420.66
2022-10-18T08:13:40.741Z,100429.25
2022-10-18T08:14:42.669Z,100428.44
2022-10-18T08:15:45.017Z,100421.72
2022-10-18T08:16:46.730Z,100427.78
2022-10-18T08:17:48.402Z,100421.75
2022-10-18T08:18:50.181Z,100399.69
2022-10-18T08:20:04.785Z,100418.63
2022-10-18T08:21:15.780Z,100402.88
2022-10-18T08:22:17.490Z,100400.47
2022-10-18T08:23:19.161Z,100417.47
2022-10-18T08:24:20.842Z,100410.59
2022-10-18T08:25:22.521Z,100407.06
2022-10-18T08:26:24.264Z,100405.53
2022-10-18T08:27:26.516Z,100407.94
2022-10-18T08:28:28.279Z,100405.53
2022-10-18T08:29:32.050Z,100386.13
2022-10-18T08:30:35.982Z,100381.69
2022-10-18T08:31:37.729Z,100391.56
2022-10-18T08:32:39.417Z,100407.06
2022-10-18T08:33:41.177Z,100379.47
2022-10-18T08:34:42.829Z,100394.22
2022-10-18T08:35:54.147Z,100400.75
2022-10-18T08:36:55.814Z,100367.13
2022-10-18T08:37:57.888Z,100377.84
2022-10-18T08:38:59.701Z,100383.69
2022-10-18T08:40:01.495Z,100380.28
2022-10-18T08:41:26.617Z,100386.88
2022-10-18T08:42:49.698Z,100386.25
2022-10-18T08:44:06.370Z,100384.50
2022-10-18T08:45:29.741Z,100381.34
2022-10-18T08:46:37.184Z,100377.19
2022-10-18T08:47:49.307Z,100367.16
2022-10-18T08:48:55.264Z,100373.88
2022-10-18T08:50:01.071Z,100362.75
2022-10-18T08:51:07.360Z,100354.66
2022-10-18T08:52:45.206Z,100374.34
2022-10-18T08:53:57.423Z,100376.41
2022-10-18T08:55:10.090Z,100366.44
2022-10-18T08:56:15.077Z,100369.50
2022-10-18T08:57:18.409Z,100372.59
2022-10-18T08:58:30.877Z,100371.19
2022-10-18T08:59:39.185Z,100368.75
2022-10-18T09:00:50.176Z,100364.38
2022-10-18T09:02:04.715Z,100362.44
2022-10-18T09:03:26.899Z,100363.00
2022-10-18T09:04:36.887Z,100359.22
2022-10-18T09:05:48.873Z,100355.63
2022-10-18T09:07:00.818Z,100359.31
2022-10-18T09:08:14.234Z,100359.56
2022-10-18T09:09:24.988Z,100355.50
2022-10-18T09:10:45.307Z,100355.72
2022-10-18T09:11:58.114Z,100349.84
2022-10-18T09:13:24.502Z,100350.66
2022-10-18T09:14:36.634Z,100327.00
2022-10-18T09:15:49.608Z,100340.59
2022-10-18T09:17:16.261Z,100348.00
2022-10-18T09:18:39.769Z,100347.69
2022-10-18T09:20:02.122Z,100348.59
2022-10-18T09:21:35.609Z,100344.94
2022-10-18T09:22:54.073Z,100348.66
2022-10-18T09:24:02.263Z,100344.38
2022-10-18T09:25:16.460Z,100336.25
2022-10-18T09:26:23.761Z,100339.91
2022-10-18T09:27:46.082Z,100340.75
2022-10-18T09:29:13.543Z,100340.72
2022-10-18T09:30:26.658Z,100342.22
2022-10-18T09:31:49.706Z,100330.28
2022-10-18T09:33:01.725Z,100300.53
2022-10-18T09:34:10.434Z,100327.69
2022-10-18T09:35:25.582Z,100314.44
2022-10-18T09:36:35.662Z,100315.09
2022-10-18T09:37:38.055Z,100318.19
2022-10-18T09:38:48.827Z,100301.75
2022-10-18T09:39:59.401Z,100308.81
2022-10-18T09:41:08.861Z,100313.91
2022-10-18T09:42:28.719Z,100306.47
2022-10-18T09:43:43.859Z,100303.38
2022-10-18T09:44:53.682Z,100306.72
2022-10-18T09:45:56.845Z,100279.31
2022-10-18T09:47:26.819Z,100298.53
2022-10-18T09:48:46.519Z,100298.84
2022-10-18T09:49:55.014Z,100297.63
2022-10-18T09:51:02.484Z,100287.94
2022-10-18T09:52:09.244Z,100297.16
2022-10-18T09:53:12.325Z,100296.41
2022-10-18T09:54:26.240Z,100297.28
2022-10-18T09:55:35.067Z,100294.53
2022-10-18T09:56:45.107Z,100300.53
2022-10-18T09:58:08.226Z,100291.25
2022-10-18T09:59:24.626Z,100279.03
2022-10-18T10:00:31.484Z,100282.63
2022-10-18T10:01:33.815Z,100246.25
2022-10-18T10:02:35.639Z,100255.75
2022-10-18T10:03:37.602Z,100250.78
2022-10-18T10:04:39.296Z,100262.56
2022-10-18T10:05:42.069Z,100269.53
2022-10-18T10:06:53.548Z,100273.56
2022-10-18T10:07:59.977Z,100274.19
2022-10-18T10:09:14.886Z,100268.38
2022-10-18T10:10:21.609Z,100266.59
2022-10-18T10:11:27.946Z,100256.94
2022-10-18T10:12:35.631Z,100264.56
2022-10-18T10:13:37.315Z,100252.72
2022-10-18T10:14:44.409Z,100252.91
2022-10-18T10:15:52.179Z,100252.13
2022-10-18T10:17:03.875Z,100223.63
2022-10-18T10:18:21.604Z,100239.63
2022-10-18T10:20:20.638Z,100223.22
2022-10-18T10:21:22.608Z,100239.84
2022-10-18T10:22:32.680Z,100232.44
2022-10-18T10:23:44.672Z,100228.38
2022-10-18T10:24:51.200Z,100234.31
2022-10-18T10:26:01.234Z,100221.72
2022-10-18T10:27:06.223Z,100218.69
2022-10-18T10:28:18.522Z,100213.88
2022-10-18T10:29:47.780Z,100214.72
2022-10-18T10:30:50.089Z,100211.75
2022-10-18T10:32:19.805Z,100209.13
2022-10-18T10:33:38.935Z,100194.66
2022-10-18T10:34:44.883Z,100206.31
2022-10-18T10:35:58.817Z,100194.47
2022-10-18T10:37:00.477Z,100201.75
2022-10-18T10:38:03.125Z,100196.31
2022-10-18T10:39:19.387Z,100185.72
2022-10-18T10:40:28.530Z,100185.44
2022-10-18T10:42:37.999Z,100168.72
2022-10-18T10:43:40.444Z,100165.69
2022-10-18T10:44:54.596Z,100178.47
2022-10-18T10:46:05.353Z,100168.56
2022-10-18T10:47:07.077Z,100159.72
2022-10-18T10:48:15.382Z,100163.91
2022-10-18T10:49:41.173Z,100165.78
2022-10-18T10:50:58.294Z,100154.00
2022-10-18T10:52:15.387Z,100149.66
2022-10-18T10:53:32.669Z,100151.47
2022-10-18T10:54:39.137Z,100147.28
2022-10-18T10:55:40.848Z,100151.94
2022-10-18T10:56:51.426Z,100147.03
2022-10-18T10:57:53.856Z,100146.81
2022-10-18T10:59:01.202Z,100126.69
2022-10-18T11:00:04.331Z,100135.22
2022-10-18T11:01:36.501Z,100130.28
2022-10-18T11:02:38.226Z,100131.38
2022-10-18T11:03:46.880Z,100126.69
2022-10-18T11:04:51.417Z,100125.06
2022-10-18T11:05:58.857Z,100122.19
2022-10-18T11:07:04.614Z,100125.41
2022-10-18T11:08:06.464Z,100122.03
2022-10-18T11:09:26.872Z,100124.69
2022-10-18T11:10:34.860Z,100103.06
2022-10-18T11:11:46.738Z,100117.66
2022-10-18T11:13:23.952Z,100111.03
2022-10-18T11:14:30.402Z,100107.19
2022-10-18T11:15:52.565Z,100090.47
2022-10-18T11:17:08.440Z,100107.28
2022-10-18T11:18:34.338Z,100100.31
2022-10-18T11:19:45.909Z,100100.22
2022-10-18T11:21:01.398Z,100103.31
2022-10-18T11:22:06.075Z,100098.75
2022-10-18T11:23:18.127Z,100088.06
2022-10-18T11:24:20.872Z,100095.94
2022-10-18T11:25:29.232Z,100052.69
2022-10-18T11:26:43.708Z,100087.63
2022-10-18T11:28:03.273Z,100066.09
2022-10-18T11:29:23.026Z,100048.53
2022-10-18T11:30:36.400Z,100057.81
2022-10-18T11:31:41.083Z,100065.78
2022-10-18T11:33:12.033Z,100059.53
2022-10-18T11:34:36.867Z,100067.81
2022-10-18T11:35:41.274Z,100064.88
2022-10-18T11:37:09.689Z,100063.31
2022-10-18T11:38:25.341Z,100059.25
2022-10-18T11:39:49.804Z,100057.50
2022-10-18T11:40:54.296Z,100059.97
2022-10-18T11:42:02.281Z,100046.47
2022-10-18T11:43:09.990Z,100058.38
2022-10-18T11:44:27.622Z,100050.84
2022-10-18T11:45:54.005Z,100053.00
2022-10-18T11:46:58.264Z,100051.38
2022-10-18T11:48:13.727Z,100043.00
2022-10-18T11:49:41.638Z,100030.78
2022-10-18T11:51:09.447Z,100042.66
2022-10-18T11:52:15.861Z,100042.94
2022-10-18T11:53:29.432Z,100048.22
2022-10-18T11:54:48.945Z,100047.16
2022-10-18T11:56:47.600Z,100037.72
2022-10-18T11:58:22.404Z,100034.06
2022-10-18T11:59:37.973Z,100030.78
2022-10-18T12:00:53.957Z,100025.09
2022-10-18T12:01:58.267Z,100029.97
2022-10-18T12:02:59.938Z,100026.22
2022-10-18T12:04:24.626Z,100010.53
2022-10-18T12:05:27.519Z,100022.41
2022-10-18T12:06:35.493Z,99993.25
2022-10-18T12:07:44.077Z,100021.34
2022-10-18T12:08:50.015Z,100021.34
2022-10-18T12:09:55.175Z,100016.75
2022-10-18T12:11:05.442Z,100018.91
2022-10-18T12:12:10.260Z,100012.16
2022-10-18T12:13:25.757Z,99987.56
2022-10-18T12:14:33.492Z,100008.59
2022-10-18T12:15:39.568Z,99993.97
2022-10-18T12:16:51.476Z,99970.50
2022-10-18T12:17:59.580Z,99975.94
2022-10-18T12:19:11.729Z,100004.00
2022-10-18T12:20:50.908Z,100004.28
2022-10-18T12:21:53.522Z,99999.38
2022-10-18T12:23:07.533Z,99995.84
2022-10-18T12:24:16.173Z,100001.78
2022-10-18T12:25:18.913Z,99994.78
2022-10-18T12:26:21.970Z,99962.84
2022-10-18T12:27:36.672Z,99955.53
2022-10-18T12:29:07.117Z,99990.22
2022-10-18T12:30:23.928Z,99986.16
2022-10-18T12:31:35.130Z,99982.03
2022-10-18T12:32:37.957Z,99982.41
2022-10-18T12:33:44.918Z,99957.25
2022-10-18T12:34:58.011Z,99981.34
2022-10-18T12:35:59.617Z,99982.38
2022-10-18T12:37:10.140Z,99978.06
2022-10-18T12:38:26.939Z,99986.69
2022-10-18T12:39:43.762Z,99974.56
2022-10-18T12:40:55.959Z,99978.72
2022-10-18T12:41:57.975Z,99974.06
2022-10-18T12:42:59.823Z,99947.25
2022-10-18T12:44:26.622Z,99975.06
2022-10-18T12:45:33.514Z,99958.78
2022-10-18T12:46:49.811Z,99969.50